createdAt,value
2018-08-17T00:01:50.436Z,19.70
2018-08-17T00:05:39.225Z,19.80
2018-08-17T00:08:09.371Z,19.80
2018-08-17T00:10:39.034Z,19.80
2018-08-17T00:13:09.088Z,19.80
2018-08-17T00:15:37.902Z,19.80
2018-08-17T00:19:26.334Z,19.80
2018-08-17T00:21:55.750Z,19.80
2018-08-17T00:24:25.403Z,19.80
2018-08-17T00:26:56.215Z,19.70
2018-08-17T00:29:25.702Z,19.60
2018-08-17T00:31:54.491Z,19.70
2018-08-17T00:34:23.282Z,19.70
2018-08-17T00:36:52.137Z,19.60
2018-08-17T00:39:21.023Z,19.70
2018-08-17T00:41:51.864Z,19.60
2018-08-17T00:44:20.680Z,19.60
2018-08-17T00:46:49.517Z,19.60
2018-08-17T00:49:18.373Z,19.50
2018-08-17T00:51:49.304Z,19.40
2018-08-17T00:54:18.150Z,19.30
2018-08-17T00:56:47.691Z,19.20
2018-08-17T00:59:16.509Z,19.20
2018-08-17T01:01:45.304Z,19.20
2018-08-17T01:04:14.103Z,19.20
2018-08-17T01:06:44.893Z,19.10
2018-08-17T01:09:14.603Z,19.20
2018-08-17T01:11:44.303Z,19.20
2018-08-17T01:14:13.101Z,19.10
2018-08-17T01:16:43.516Z,19.10
2018-08-17T01:19:12.910Z,19.10
2018-08-17T01:21:41.782Z,19.00
2018-08-17T01:24:10.606Z,19.00
2018-08-17T01:26:39.422Z,18.90
2018-08-17T01:29:09.482Z,18.90
2018-08-17T01:31:38.293Z,19.00
2018-08-17T01:34:07.275Z,19.00
2018-08-17T01:36:36.469Z,19.00
2018-08-17T01:39:09.303Z,19.00
2018-08-17T01:41:38.279Z,19.00
2018-08-17T01:44:07.605Z,18.80
2018-08-17T01:46:36.350Z,18.70
2018-08-17T01:49:05.253Z,18.70
2018-08-17T01:51:34.076Z,18.50
2018-08-17T01:54:03.831Z,18.60
2018-08-17T01:56:33.846Z,18.70
2018-08-17T01:59:03.303Z,18.70
2018-08-17T02:01:32.138Z,18.70
2018-08-17T02:04:00.907Z,18.70
2018-08-17T02:06:29.770Z,18.70
2018-08-17T02:08:58.594Z,18.70
2018-08-17T02:11:27.370Z,18.60
2018-08-17T02:13:56.256Z,18.60
2018-08-17T02:16:25.051Z,18.60
2018-08-17T02:18:53.855Z,18.60
2018-08-17T02:21:24.698Z,18.50
2018-08-17T02:23:53.501Z,18.40
2018-08-17T02:26:22.781Z,18.40
2018-08-17T02:28:53.289Z,18.40
2018-08-17T02:31:22.096Z,18.40
2018-08-17T02:33:50.867Z,18.50
2018-08-17T02:36:20.222Z,18.40
2018-08-17T02:38:50.213Z,18.40
2018-08-17T02:41:20.286Z,18.40
2018-08-17T02:43:49.113Z,18.40
2018-08-17T02:46:18.025Z,18.30
2018-08-17T02:48:46.860Z,18.30
2018-08-17T02:51:15.671Z,18.20
2018-08-17T02:53:45.127Z,18.30
2018-08-17T02:56:14.105Z,18.20
2018-08-17T02:58:43.017Z,18.10
2018-08-17T03:01:11.814Z,18.10
2018-08-17T03:03:40.611Z,18.10
2018-08-17T03:06:09.410Z,18.10
2018-08-17T03:08:38.204Z,18.10
2018-08-17T03:11:07.057Z,18.00
2018-08-17T03:14:54.964Z,18.00
2018-08-17T03:17:23.750Z,18.00
2018-08-17T03:19:52.573Z,17.90
2018-08-17T03:22:21.337Z,17.90
2018-08-17T03:24:50.146Z,17.90
2018-08-17T03:27:18.920Z,17.90
2018-08-17T03:29:47.770Z,17.80
2018-08-17T03:32:16.581Z,17.80
2018-08-17T03:34:45.423Z,17.80
2018-08-17T03:37:14.906Z,17.70
2018-08-17T03:39:43.916Z,17.80
2018-08-17T03:42:13.526Z,17.70
2018-08-17T03:44:42.637Z,17.70
2018-08-17T03:47:12.134Z,17.70
2018-08-17T03:49:41.113Z,17.70
2018-08-17T03:52:10.719Z,17.60
2018-08-17T03:55:58.901Z,17.60
2018-08-17T03:58:27.738Z,17.50
2018-08-17T04:00:56.571Z,17.40
2018-08-17T04:03:25.492Z,17.40
2018-08-17T04:05:54.290Z,17.40
2018-08-17T04:08:23.152Z,17.30
2018-08-17T04:10:52.082Z,17.20
2018-08-17T04:13:20.932Z,17.10
2018-08-17T04:15:49.809Z,17.10
2018-08-17T04:18:18.649Z,17.00
2018-08-17T04:20:49.163Z,17.00
2018-08-17T04:23:18.005Z,17.10
2018-08-17T04:25:47.010Z,17.10
2018-08-17T04:28:15.788Z,17.10
2018-08-17T04:30:45.647Z,17.10
2018-08-17T04:33:15.802Z,17.10
2018-08-17T04:35:44.634Z,17.20
2018-08-17T04:38:13.714Z,17.20
2018-08-17T04:40:42.584Z,17.30
2018-08-17T04:43:11.398Z,17.30
2018-08-17T04:45:40.346Z,17.30
2018-08-17T04:48:09.152Z,17.40
2018-08-17T04:50:37.945Z,17.40
2018-08-17T04:53:06.796Z,17.30
2018-08-17T04:55:37.265Z,17.40
2018-08-17T04:58:06.092Z,17.30
2018-08-17T05:00:35.083Z,17.40
2018-08-17T05:03:03.962Z,17.10
2018-08-17T05:05:33.812Z,17.20
2018-08-17T05:08:02.633Z,17.30
2018-08-17T05:10:31.646Z,17.40
2018-08-17T05:14:20.129Z,17.40
2018-08-17T05:16:48.943Z,17.50
2018-08-17T05:19:18.147Z,17.60
2018-08-17T05:21:47.011Z,17.70
2018-08-17T05:24:16.604Z,17.80
2018-08-17T05:26:45.937Z,17.80
2018-08-17T05:29:14.850Z,17.90
2018-08-17T05:31:44.508Z,18.20
2018-08-17T05:34:14.264Z,18.30
2018-08-17T05:36:43.968Z,18.50
2018-08-17T05:39:12.867Z,18.60
2018-08-17T05:41:41.916Z,18.80
2018-08-17T05:44:11.729Z,19.10
2018-08-17T05:46:41.117Z,19.20
2018-08-17T05:49:10.022Z,19.20
2018-08-17T05:51:39.739Z,19.40
2018-08-17T05:55:27.720Z,19.70
2018-08-17T05:57:57.260Z,19.90
2018-08-17T06:00:26.716Z,20.10
2018-08-17T06:02:56.752Z,20.30
2018-08-17T06:05:25.779Z,20.30
2018-08-17T06:07:55.004Z,20.60
2018-08-17T06:10:23.861Z,20.90
2018-08-17T06:12:54.023Z,21.00
2018-08-17T06:15:24.647Z,21.30
2018-08-17T06:17:53.593Z,21.50
2018-08-17T06:20:22.484Z,21.60
2018-08-17T06:22:51.335Z,21.50
2018-08-17T06:25:20.168Z,21.70
2018-08-17T06:27:50.347Z,21.80
2018-08-17T06:30:19.351Z,21.80
2018-08-17T06:32:48.308Z,22.10
2018-08-17T06:35:18.454Z,22.20
2018-08-17T06:37:47.304Z,22.60
2018-08-17T06:40:17.477Z,22.70
2018-08-17T06:42:48.503Z,22.70
2018-08-17T06:45:18.330Z,22.80
2018-08-17T06:47:49.197Z,23.20
2018-08-17T06:50:18.164Z,23.50
2018-08-17T06:52:47.658Z,23.80
2018-08-17T06:55:17.599Z,23.90
2018-08-17T06:57:47.101Z,23.90
2018-08-17T07:00:17.907Z,24.20
2018-08-17T07:02:50.522Z,24.30
2018-08-17T07:05:20.440Z,23.60
2018-08-17T07:07:49.552Z,23.90
2018-08-17T07:10:19.273Z,24.10
2018-08-17T07:12:48.159Z,24.20
2018-08-17T07:15:17.982Z,24.40
2018-08-17T07:17:46.802Z,24.50
2018-08-17T07:20:15.807Z,24.90
2018-08-17T07:22:45.423Z,25.00
2018-08-17T07:25:14.382Z,25.20
2018-08-17T07:27:51.240Z,25.40
2018-08-17T07:30:21.305Z,25.10
2018-08-17T07:32:50.266Z,24.90
2018-08-17T07:35:20.888Z,25.40
2018-08-17T07:37:51.270Z,25.30
2018-08-17T07:40:20.858Z,25.30
2018-08-17T07:42:50.600Z,25.60
2018-08-17T07:45:21.510Z,26.30
2018-08-17T07:47:51.339Z,26.10
2018-08-17T07:50:22.166Z,26.40
2018-08-17T07:52:51.989Z,26.50
2018-08-17T07:55:20.871Z,26.50
2018-08-17T07:57:50.455Z,26.50
2018-08-17T08:00:20.063Z,26.40
2018-08-17T08:02:50.659Z,26.80
2018-08-17T08:05:22.659Z,26.70
2018-08-17T08:07:52.174Z,26.90
2018-08-17T08:10:21.631Z,27.20
2018-08-17T08:12:51.651Z,26.90
2018-08-17T08:15:24.365Z,27.10
2018-08-17T08:17:57.001Z,27.90
2018-08-17T08:20:32.727Z,28.20
2018-08-17T08:23:17.532Z,27.90
2018-08-17T08:25:47.434Z,28.00
2018-08-17T08:28:17.041Z,28.00
2018-08-17T08:30:48.327Z,28.00
2018-08-17T08:33:17.626Z,28.40
2018-08-17T08:35:47.817Z,29.20
2018-08-17T08:38:17.910Z,28.80
2018-08-17T08:40:49.773Z,28.60
2018-08-17T08:43:18.817Z,28.20
2018-08-17T08:45:47.739Z,27.70
2018-08-17T08:48:20.493Z,28.00
2018-08-17T08:50:56.414Z,28.20
2018-08-17T08:53:27.305Z,29.50
2018-08-17T08:55:56.858Z,30.00
2018-08-17T08:58:26.471Z,29.90
2018-08-17T09:00:56.383Z,30.10
2018-08-17T09:03:25.741Z,30.70
2018-08-17T09:05:54.608Z,31.30
2018-08-17T09:08:25.565Z,31.10
2018-08-17T09:10:55.372Z,30.80
2018-08-17T09:13:27.373Z,31.10
2018-08-17T09:15:57.058Z,31.50
2018-08-17T09:18:28.089Z,30.60
2018-08-17T09:20:57.626Z,30.40
2018-08-17T09:23:30.012Z,30.80
2018-08-17T09:25:59.461Z,31.10
2018-08-17T09:28:31.998Z,30.80
2018-08-17T09:31:03.322Z,30.80
2018-08-17T09:33:33.275Z,31.30
2018-08-17T09:36:02.318Z,31.60
2018-08-17T09:38:31.994Z,31.50
2018-08-17T09:41:01.287Z,32.00
2018-08-17T09:43:30.167Z,32.40
2018-08-17T09:45:59.534Z,32.00
2018-08-17T09:48:30.691Z,32.10
2018-08-17T09:51:00.551Z,32.10
2018-08-17T09:53:29.654Z,32.30
2018-08-17T09:56:00.535Z,32.20
2018-08-17T09:58:31.547Z,32.60
2018-08-17T10:01:06.152Z,33.80
2018-08-17T10:03:42.073Z,34.20
2018-08-17T10:06:16.557Z,33.70
2018-08-17T10:08:52.255Z,31.90
2018-08-17T10:11:22.495Z,30.80
2018-08-17T10:13:52.622Z,29.90
2018-08-17T10:16:21.660Z,30.20
2018-08-17T10:18:52.928Z,30.70
2018-08-17T10:21:26.412Z,31.30
2018-08-17T10:23:58.345Z,32.20
2018-08-17T10:26:30.484Z,32.70
2018-08-17T10:29:09.985Z,33.20
2018-08-17T10:31:40.869Z,34.10
2018-08-17T10:34:10.520Z,34.20
2018-08-17T10:36:47.673Z,34.80
2018-08-17T10:39:17.116Z,35.20
2018-08-17T10:41:46.349Z,35.00
2018-08-17T10:44:17.546Z,34.60
2018-08-17T10:46:48.683Z,35.70
2018-08-17T10:49:19.144Z,36.20
2018-08-17T10:51:48.927Z,36.00
2018-08-17T10:54:18.590Z,36.60
2018-08-17T10:56:49.271Z,37.10
2018-08-17T10:59:18.942Z,36.50
2018-08-17T11:01:49.871Z,36.50
2018-08-17T11:04:18.767Z,36.30
2018-08-17T11:06:48.281Z,34.80
2018-08-17T11:09:17.975Z,35.70
2018-08-17T11:11:50.725Z,36.00
2018-08-17T11:14:20.244Z,35.70
2018-08-17T11:16:50.837Z,35.60
2018-08-17T11:19:21.543Z,35.90
2018-08-17T11:21:50.506Z,35.90
2018-08-17T11:26:58.290Z,35.70
2018-08-17T11:29:31.530Z,35.60
2018-08-17T11:32:00.626Z,35.30
2018-08-17T11:34:30.493Z,35.30
2018-08-17T11:37:00.877Z,35.20
2018-08-17T11:39:32.956Z,34.60
2018-08-17T11:42:03.884Z,34.10
2018-08-17T11:44:34.320Z,34.30
2018-08-17T11:47:04.297Z,33.40
2018-08-17T11:49:35.168Z,32.60
2018-08-17T11:52:04.735Z,32.00
2018-08-17T11:54:34.738Z,32.30
2018-08-17T11:57:03.737Z,32.20
2018-08-17T11:59:33.295Z,32.50
2018-08-17T12:02:03.800Z,32.80
2018-08-17T12:04:33.508Z,33.00
2018-08-17T12:07:03.411Z,32.60
2018-08-17T12:09:33.202Z,31.90
2018-08-17T12:12:04.439Z,31.30
2018-08-17T12:14:34.754Z,31.10
2018-08-17T12:17:05.759Z,31.10
2018-08-17T12:19:35.604Z,31.40
2018-08-17T12:22:08.080Z,31.70
2018-08-17T12:24:38.634Z,31.70
2018-08-17T12:27:10.193Z,32.00
2018-08-17T12:29:42.628Z,32.20
2018-08-17T12:32:13.406Z,32.20
2018-08-17T12:34:43.621Z,31.70
2018-08-17T12:37:12.748Z,31.10
2018-08-17T12:39:41.639Z,30.90
2018-08-17T12:42:10.599Z,31.20
2018-08-17T12:44:40.364Z,31.20
2018-08-17T12:47:15.814Z,30.80
2018-08-17T12:49:44.757Z,30.60
2018-08-17T12:52:13.717Z,30.60
2018-08-17T12:54:45.680Z,30.90
2018-08-17T12:57:17.529Z,31.20
2018-08-17T12:59:48.926Z,31.20
2018-08-17T13:02:18.327Z,31.40
2018-08-17T13:04:47.258Z,31.60
2018-08-17T13:07:18.489Z,31.80
2018-08-17T13:10:00.446Z,31.70
2018-08-17T13:12:31.009Z,31.40
2018-08-17T13:15:01.170Z,30.80
2018-08-17T13:17:36.144Z,30.40
2018-08-17T13:20:05.677Z,30.40
2018-08-17T13:22:39.381Z,30.20
2018-08-17T13:25:18.122Z,30.20
2018-08-17T13:30:25.612Z,29.40
2018-08-17T13:32:56.641Z,29.20
2018-08-17T13:35:29.792Z,29.20
2018-08-17T13:37:59.017Z,29.30
2018-08-17T13:40:28.155Z,29.60
2018-08-17T13:42:57.012Z,30.00
2018-08-17T13:45:29.119Z,30.30
2018-08-17T13:48:04.150Z,30.30
2018-08-17T13:50:35.015Z,30.30
2018-08-17T13:53:05.075Z,30.20
2018-08-17T13:55:34.088Z,30.00
2018-08-17T13:58:06.675Z,29.60
2018-08-17T14:00:36.459Z,29.40
2018-08-17T14:03:08.204Z,29.70
2018-08-17T14:05:37.441Z,29.60
2018-08-17T14:08:07.697Z,29.80
2018-08-17T14:10:37.117Z,29.70
2018-08-17T14:13:07.413Z,29.40
2018-08-17T14:15:36.323Z,29.20
2018-08-17T14:18:08.755Z,29.00
2018-08-17T14:20:38.278Z,29.00
2018-08-17T14:23:07.233Z,29.30
2018-08-17T14:25:36.390Z,29.60
2018-08-17T14:28:14.114Z,29.80
2018-08-17T14:30:46.157Z,29.90
2018-08-17T14:33:15.400Z,30.00
2018-08-17T14:35:45.508Z,29.70
2018-08-17T14:38:16.412Z,29.70
2018-08-17T14:40:45.867Z,29.70
2018-08-17T14:43:15.639Z,29.50
2018-08-17T14:45:45.490Z,29.40
2018-08-17T14:48:14.455Z,29.40
2018-08-17T14:50:43.374Z,29.40
2018-08-17T14:53:13.577Z,29.40
2018-08-17T14:55:43.802Z,29.40
2018-08-17T14:58:14.203Z,29.30
2018-08-17T15:00:43.523Z,29.10
2018-08-17T15:03:14.644Z,29.00
2018-08-17T15:05:45.485Z,29.00
2018-08-17T15:08:15.712Z,28.90
2018-08-17T15:10:50.636Z,28.70
2018-08-17T15:13:21.699Z,28.50
2018-08-17T15:15:51.673Z,28.30
2018-08-17T15:18:20.645Z,28.20
2018-08-17T15:20:50.157Z,28.50
2018-08-17T15:23:19.767Z,28.50
2018-08-17T15:25:49.987Z,28.60
2018-08-17T15:28:29.838Z,28.60
2018-08-17T15:30:59.965Z,28.50
2018-08-17T15:33:30.453Z,28.40
2018-08-17T15:36:01.056Z,28.00
2018-08-17T15:38:30.107Z,27.80
2018-08-17T15:40:59.192Z,27.60
2018-08-17T15:43:29.127Z,27.50
2018-08-17T15:45:59.682Z,27.40
2018-08-17T15:48:41.374Z,27.30
2018-08-17T15:51:18.363Z,27.20
2018-08-17T15:53:51.202Z,27.20
2018-08-17T15:56:23.634Z,27.00
2018-08-17T15:58:53.319Z,26.90
2018-08-17T16:01:22.276Z,26.80
2018-08-17T16:03:51.324Z,26.70
2018-08-17T16:06:22.653Z,26.50
2018-08-17T16:08:56.295Z,26.40
2018-08-17T16:11:26.867Z,26.10
2018-08-17T16:14:00.284Z,26.10
2018-08-17T16:16:31.411Z,26.00
2018-08-17T16:19:02.715Z,25.90
2018-08-17T16:21:32.642Z,25.90
2018-08-17T16:24:03.636Z,25.50
2018-08-17T16:26:36.214Z,25.50
2018-08-17T16:29:08.609Z,25.40
2018-08-17T16:31:43.369Z,25.30
2018-08-17T16:34:12.380Z,25.10
2018-08-17T16:36:44.050Z,25.00
2018-08-17T16:39:17.647Z,24.90
2018-08-17T16:41:49.981Z,24.70
2018-08-17T16:44:21.480Z,24.50
2018-08-17T16:46:53.720Z,24.40
2018-08-17T16:49:29.635Z,24.40
2018-08-17T16:52:00.676Z,24.40
2018-08-17T16:54:35.245Z,24.20
2018-08-17T17:00:18.181Z,24.30
2018-08-17T17:02:50.661Z,24.40
2018-08-17T17:05:23.277Z,24.40
2018-08-17T17:08:02.140Z,24.30
2018-08-17T17:10:33.128Z,24.30
2018-08-17T17:13:04.299Z,24.30
2018-08-17T17:15:36.228Z,24.30
2018-08-17T17:18:08.310Z,24.20
2018-08-17T17:20:40.277Z,24.10
2018-08-17T17:23:13.165Z,24.00
2018-08-17T17:25:58.257Z,23.80
2018-08-17T17:28:34.349Z,23.80
2018-08-17T17:31:05.759Z,23.80
2018-08-17T17:33:35.722Z,23.60
2018-08-17T17:36:06.160Z,23.50
2018-08-17T17:38:36.123Z,23.50
2018-08-17T17:41:06.330Z,23.50
2018-08-17T17:43:38.079Z,23.50
2018-08-17T17:46:17.245Z,23.30
2018-08-17T17:48:50.194Z,23.30
2018-08-17T17:51:27.709Z,23.20
2018-08-17T17:54:00.392Z,23.20
2018-08-17T17:56:33.362Z,23.20
2018-08-17T17:59:15.651Z,23.20
2018-08-17T18:01:52.319Z,23.10
2018-08-17T18:04:22.331Z,23.10
2018-08-17T18:06:54.784Z,23.00
2018-08-17T18:09:24.785Z,23.00
2018-08-17T18:11:56.369Z,22.90
2018-08-17T18:14:27.274Z,22.90
2018-08-17T18:17:02.493Z,22.70
2018-08-17T18:19:33.774Z,22.70
2018-08-17T18:22:03.638Z,22.60
2018-08-17T18:24:34.282Z,22.60
2018-08-17T18:27:03.270Z,22.50
2018-08-17T18:29:36.754Z,22.40
2018-08-17T18:32:07.323Z,22.30
2018-08-17T18:34:36.212Z,22.30
2018-08-17T18:37:09.527Z,22.30
2018-08-17T18:39:41.128Z,22.20
2018-08-17T18:42:11.820Z,22.10
2018-08-17T18:44:42.299Z,22.00
2018-08-17T18:47:11.370Z,22.00
2018-08-17T18:49:41.041Z,22.00
2018-08-17T18:52:10.294Z,21.90
2018-08-17T18:54:39.486Z,21.80
2018-08-17T19:02:16.119Z,21.80
2018-08-17T19:04:45.666Z,21.80
2018-08-17T19:07:22.195Z,21.70
2018-08-17T19:09:51.143Z,21.70
2018-08-17T19:12:22.224Z,21.60
2018-08-17T19:14:52.472Z,21.60
2018-08-17T19:17:31.618Z,21.50
2018-08-17T19:20:07.317Z,21.50
2018-08-17T19:22:45.355Z,21.50
2018-08-17T19:25:17.494Z,21.40
2018-08-17T19:27:49.402Z,21.40
2018-08-17T19:30:25.021Z,21.30
2018-08-17T19:32:55.310Z,21.20
2018-08-17T19:35:26.272Z,21.20
2018-08-17T19:37:57.806Z,21.20
2018-08-17T19:40:29.410Z,21.20
2018-08-17T19:43:02.459Z,21.10
2018-08-17T19:45:33.148Z,21.10
2018-08-17T19:48:03.069Z,21.10
2018-08-17T19:50:32.654Z,21.10
2018-08-17T19:53:04.574Z,21.10
2018-08-17T19:55:37.373Z,21.00
2018-08-17T19:58:08.267Z,21.00
2018-08-17T20:03:18.703Z,21.10
2018-08-17T20:05:47.710Z,21.20
2018-08-17T20:08:17.666Z,21.10
2018-08-17T20:10:54.612Z,21.10
2018-08-17T20:13:23.646Z,21.20
2018-08-17T20:15:52.817Z,21.10
2018-08-17T20:18:23.418Z,21.10
2018-08-17T20:20:59.669Z,21.10
2018-08-17T20:23:30.564Z,21.10
2018-08-17T20:26:01.345Z,21.10
2018-08-17T20:28:30.596Z,21.20
2018-08-17T20:30:59.803Z,21.10
2018-08-17T20:33:28.834Z,21.20
2018-08-17T20:36:29.650Z,21.20
2018-08-17T20:39:00.126Z,21.20
2018-08-17T20:41:30.599Z,21.20
2018-08-17T20:44:07.205Z,21.20
2018-08-17T20:46:37.085Z,21.20
2018-08-17T20:49:07.598Z,21.10
2018-08-17T20:51:46.191Z,21.10
2018-08-17T20:54:15.215Z,21.00
2018-08-17T20:56:46.741Z,20.90
2018-08-17T20:59:19.201Z,20.90
2018-08-17T21:01:50.180Z,20.80
2018-08-17T21:04:19.723Z,20.80
2018-08-17T21:06:49.208Z,20.70
2018-08-17T21:09:18.692Z,20.70
2018-08-17T21:11:51.705Z,20.70
2018-08-17T21:14:20.683Z,20.70
2018-08-17T21:17:01.146Z,20.70
2018-08-17T21:19:35.833Z,20.70
2018-08-17T21:22:07.037Z,20.70
2018-08-17T21:24:37.782Z,20.60
2018-08-17T21:27:07.664Z,20.60
2018-08-17T21:29:37.884Z,20.60
2018-08-17T21:32:06.938Z,20.50
2018-08-17T21:34:37.827Z,20.40
2018-08-17T21:37:08.699Z,20.40
2018-08-17T21:39:38.458Z,20.40
2018-08-17T21:42:07.767Z,20.40
2018-08-17T21:44:38.078Z,20.40
2018-08-17T21:47:07.500Z,20.40
2018-08-17T21:49:38.136Z,20.30
2018-08-17T21:52:09.799Z,20.30
2018-08-17T21:54:39.682Z,20.30
2018-08-17T21:57:09.479Z,20.30
2018-08-17T21:59:43.718Z,20.30
2018-08-17T22:02:13.628Z,20.40
2018-08-17T22:04:42.730Z,20.40
2018-08-17T22:07:16.970Z,20.40
2018-08-17T22:09:46.178Z,20.40
2018-08-17T22:12:18.150Z,20.30
2018-08-17T22:14:49.369Z,20.30
2018-08-17T22:17:31.109Z,20.30
2018-08-17T22:20:00.800Z,20.20
2018-08-17T22:22:29.725Z,20.30
2018-08-17T22:24:59.487Z,20.30
2018-08-17T22:27:29.632Z,20.20
2018-08-17T22:30:00.509Z,20.20
2018-08-17T22:32:37.666Z,20.20
2018-08-17T22:35:07.666Z,20.20
2018-08-17T22:37:37.003Z,20.10
2018-08-17T22:40:06.059Z,20.10
2018-08-17T22:42:35.934Z,20.10
2018-08-17T22:45:07.332Z,20.10
2018-08-17T22:47:36.381Z,20.10
2018-08-17T22:50:05.574Z,20.10
2018-08-17T22:52:36.989Z,20.00
2018-08-17T22:55:09.609Z,20.00
2018-08-17T22:57:38.652Z,20.00
2018-08-17T23:00:19.143Z,19.90
2018-08-17T23:02:49.220Z,19.80
2018-08-17T23:05:23.461Z,19.70
2018-08-17T23:07:54.154Z,19.50
2018-08-17T23:10:24.386Z,19.40
2018-08-17T23:12:54.904Z,19.40
2018-08-17T23:15:27.202Z,19.20
2018-08-17T23:17:59.455Z,19.20
2018-08-17T23:20:36.054Z,19.20
2018-08-17T23:23:06.769Z,19.20
2018-08-17T23:25:36.907Z,19.20
2018-08-17T23:28:07.907Z,19.20
2018-08-17T23:30:37.219Z,19.20
2018-08-17T23:33:07.008Z,19.20
2018-08-17T23:35:35.916Z,19.10
2018-08-17T23:38:05.250Z,19.00
2018-08-17T23:40:34.233Z,18.90
2018-08-17T23:43:03.128Z,18.90
2018-08-17T23:45:32.013Z,18.90
2018-08-17T23:48:00.901Z,18.80
2018-08-17T23:50:29.862Z,18.80
2018-08-17T23:53:00.085Z,18.70
2018-08-17T23:55:29.016Z,18.60
2018-08-17T23:57:58.262Z,18.50
